createdAt,value
2023-02-12T00:00:47.364Z,7.03
2023-02-12T00:05:47.294Z,7.00
2023-02-12T00:10:47.239Z,7.02
2023-02-12T00:15:47.265Z,7.00
2023-02-12T00:20:47.098Z,7.02
2023-02-12T00:25:47.026Z,7.00
2023-02-12T00:30:47.097Z,7.00
2023-02-12T00:35:46.889Z,6.99
2023-02-12T00:40:46.840Z,7.03
2023-02-12T00:45:46.791Z,7.03
2023-02-12T00:50:46.711Z,7.00
2023-02-12T00:55:46.621Z,6.99
2023-02-12T01:00:46.612Z,6.92
2023-02-12T01:05:46.489Z,6.91
2023-02-12T01:10:46.442Z,6.87
2023-02-12T01:15:46.360Z,6.80
2023-02-12T01:20:46.300Z,6.76
2023-02-12T01:25:46.224Z,6.74
2023-02-12T01:30:46.213Z,6.77
2023-02-12T01:35:46.091Z,6.78
2023-02-12T01:40:46.029Z,6.81
2023-02-12T01:45:45.956Z,6.84
2023-02-12T01:50:45.905Z,6.87
2023-02-12T01:55:45.822Z,6.88
2023-02-12T02:00:45.772Z,6.95
2023-02-12T02:05:45.685Z,6.92
2023-02-12T02:10:45.635Z,6.96
2023-02-12T02:15:45.580Z,6.96
2023-02-12T02:20:45.502Z,6.96
2023-02-12T02:25:45.418Z,6.95
2023-02-12T02:30:45.689Z,6.95
2023-02-12T02:35:45.276Z,6.95
2023-02-12T02:40:45.228Z,6.96
2023-02-12T02:45:45.143Z,6.97
2023-02-12T02:50:45.094Z,6.96
2023-02-12T02:55:45.012Z,6.96
2023-02-12T03:00:45.018Z,6.96
2023-02-12T03:05:44.876Z,6.92
2023-02-12T03:10:44.817Z,6.95
2023-02-12T03:15:44.742Z,6.95
2023-02-12T03:20:44.686Z,6.88
2023-02-12T03:25:44.614Z,6.88
2023-02-12T03:30:44.581Z,6.88
2023-02-12T03:35:44.479Z,6.87
2023-02-12T03:40:44.421Z,6.84
2023-02-12T03:45:44.373Z,6.84
2023-02-12T03:50:44.309Z,6.84
2023-02-12T03:55:44.212Z,6.84
2023-02-12T04:00:44.300Z,6.83
2023-02-12T04:05:44.076Z,6.81
2023-02-12T04:10:44.023Z,6.80
2023-02-12T04:15:43.959Z,6.83
2023-02-12T04:20:43.891Z,6.83
2023-02-12T04:25:43.814Z,6.83
2023-02-12T04:30:43.867Z,6.81
2023-02-12T04:35:43.674Z,6.80
2023-02-12T04:40:43.623Z,6.80
2023-02-12T04:45:43.551Z,6.78
2023-02-12T04:50:43.488Z,6.77
2023-02-12T04:55:43.427Z,6.77
2023-02-12T05:00:43.351Z,6.78
2023-02-12T05:05:43.276Z,6.81
2023-02-12T05:10:43.221Z,6.87
2023-02-12T05:15:43.188Z,6.88
2023-02-12T05:20:43.093Z,6.87
2023-02-12T05:25:43.008Z,6.91
2023-02-12T05:30:43.109Z,6.91
2023-02-12T05:35:42.872Z,6.92
2023-02-12T05:40:42.815Z,6.95
2023-02-12T05:45:42.737Z,6.95
2023-02-12T05:50:42.678Z,6.95
2023-02-12T05:55:42.604Z,6.92
2023-02-12T06:00:42.583Z,6.95
2023-02-12T06:05:42.472Z,6.91
2023-02-12T06:10:42.411Z,6.88
2023-02-12T06:15:42.394Z,6.84
2023-02-12T06:20:42.304Z,6.87
2023-02-12T06:25:42.200Z,6.86
2023-02-12T06:30:42.148Z,6.91
2023-02-12T06:35:42.073Z,6.97
2023-02-12T06:40:42.014Z,6.99
2023-02-12T06:45:41.936Z,7.00
2023-02-12T06:50:41.881Z,7.02
2023-02-12T06:55:41.812Z,7.02
2023-02-12T07:00:41.850Z,7.05
2023-02-12T07:05:41.674Z,7.07
2023-02-12T07:10:41.620Z,7.10
2023-02-12T07:15:41.546Z,7.10
2023-02-12T07:20:41.488Z,7.13
2023-02-12T07:25:41.413Z,7.15
2023-02-12T07:30:42.666Z,7.18
2023-02-12T07:35:41.279Z,7.21
2023-02-12T07:40:41.217Z,7.23
2023-02-12T07:45:41.197Z,7.25
2023-02-12T07:50:41.077Z,7.28
2023-02-12T07:55:41.022Z,7.29
2023-02-12T08:00:40.940Z,7.32
2023-02-12T08:05:40.885Z,7.38
2023-02-12T08:10:40.808Z,7.38
2023-02-12T08:15:40.748Z,7.43
2023-02-12T08:20:40.675Z,7.48
2023-02-12T08:25:40.620Z,7.51
2023-02-12T08:30:40.636Z,7.51
2023-02-12T08:35:40.633Z,7.53
2023-02-12T08:40:40.687Z,7.54
2023-02-12T08:45:40.662Z,7.78
2023-02-12T08:50:40.629Z,8.05
2023-02-12T08:55:40.669Z,8.15
2023-02-12T09:00:40.758Z,8.14
2023-02-12T09:05:40.083Z,8.19
2023-02-12T09:10:40.010Z,8.37
2023-02-12T09:15:39.945Z,8.48
2023-02-12T09:20:39.887Z,8.55
2023-02-12T09:25:39.817Z,8.63
2023-02-12T09:30:39.790Z,8.70
2023-02-12T09:35:39.682Z,8.74
2023-02-12T09:40:39.612Z,8.81
2023-02-12T09:45:39.546Z,8.88
2023-02-12T09:50:39.474Z,8.94
2023-02-12T09:55:39.416Z,8.99
2023-02-12T10:00:39.342Z,8.94
2023-02-12T10:05:39.290Z,8.95
2023-02-12T10:10:39.215Z,9.03
2023-02-12T10:15:39.214Z,9.10
2023-02-12T10:20:41.433Z,9.09
2023-02-12T10:25:39.022Z,9.04
2023-02-12T10:30:38.980Z,9.09
2023-02-12T10:35:38.885Z,9.09
2023-02-12T10:40:38.807Z,9.09
2023-02-12T10:45:38.748Z,9.17
2023-02-12T10:50:38.671Z,9.27
2023-02-12T10:55:38.642Z,9.42
2023-02-12T11:00:38.546Z,9.45
2023-02-12T11:05:39.510Z,9.45
2023-02-12T11:10:38.409Z,9.49
2023-02-12T11:15:38.381Z,9.53
2023-02-12T11:20:38.274Z,9.57
2023-02-12T11:25:38.216Z,9.58
2023-02-12T11:30:38.140Z,9.63
2023-02-12T11:35:38.086Z,9.67
2023-02-12T11:40:38.010Z,9.76
2023-02-12T11:45:37.952Z,9.84
2023-02-12T11:50:37.879Z,9.94
2023-02-12T11:55:37.821Z,10.15
2023-02-12T12:00:37.753Z,10.31
2023-02-12T12:05:37.686Z,10.28
2023-02-12T12:10:37.611Z,10.23
2023-02-12T12:15:37.551Z,10.28
2023-02-12T12:20:37.479Z,10.31
2023-02-12T12:25:37.418Z,10.37
2023-02-12T12:30:37.423Z,10.44
2023-02-12T12:35:37.287Z,10.44
2023-02-12T12:40:37.211Z,10.42
2023-02-12T12:45:37.159Z,10.37
2023-02-12T12:50:37.081Z,10.26
2023-02-12T12:55:37.019Z,10.17
2023-02-12T13:00:36.947Z,10.16
2023-02-12T13:05:36.889Z,10.12
2023-02-12T13:10:36.817Z,10.10
2023-02-12T13:15:36.758Z,10.13
2023-02-12T13:20:36.679Z,10.12
2023-02-12T13:25:36.632Z,10.12
2023-02-12T13:30:36.573Z,10.15
2023-02-12T13:35:36.491Z,10.19
2023-02-12T13:40:36.416Z,10.26
2023-02-12T13:45:36.356Z,10.34
2023-02-12T13:50:36.289Z,10.33
2023-02-12T13:55:36.243Z,10.33
2023-02-12T14:00:36.170Z,10.26
2023-02-12T14:05:36.090Z,10.19
2023-02-12T14:10:36.023Z,10.12
2023-02-12T14:15:36.078Z,10.10
2023-02-12T14:20:35.883Z,10.07
2023-02-12T14:25:35.821Z,10.02
2023-02-12T14:30:36.765Z,9.99
2023-02-12T14:35:35.720Z,9.98
2023-02-12T14:40:35.615Z,9.98
2023-02-12T14:45:35.553Z,9.97
2023-02-12T14:50:35.479Z,9.95
2023-02-12T14:55:35.421Z,9.94
2023-02-12T15:00:35.345Z,9.89
2023-02-12T15:05:35.285Z,9.89
2023-02-12T15:10:35.214Z,9.86
2023-02-12T15:15:35.149Z,9.82
2023-02-12T15:20:35.079Z,9.80
2023-02-12T15:25:35.024Z,9.73
2023-02-12T15:30:34.945Z,9.72
2023-02-12T15:35:34.912Z,9.68
2023-02-12T15:40:34.815Z,9.65
2023-02-12T15:45:34.764Z,9.63
2023-02-12T15:50:34.682Z,9.58
2023-02-12T15:55:34.628Z,9.53
2023-02-12T16:00:34.543Z,9.46
2023-02-12T16:05:35.427Z,9.43
2023-02-12T16:10:34.426Z,9.38
2023-02-12T16:15:34.379Z,9.35
2023-02-12T16:20:34.283Z,9.28
2023-02-12T16:25:34.224Z,9.25
2023-02-12T16:30:34.193Z,9.22
2023-02-12T16:35:34.093Z,9.20
2023-02-12T16:40:34.046Z,9.17
2023-02-12T16:45:33.997Z,9.10
2023-02-12T16:50:33.887Z,9.07
2023-02-12T16:55:33.844Z,9.04
2023-02-12T17:00:33.773Z,9.03
2023-02-12T17:05:33.698Z,8.94
2023-02-12T17:10:33.625Z,8.91
2023-02-12T17:15:33.577Z,8.87
2023-02-12T17:20:33.505Z,8.87
2023-02-12T17:25:33.436Z,8.88
2023-02-12T17:30:33.363Z,8.87
2023-02-12T17:35:33.306Z,8.87
2023-02-12T17:40:33.251Z,8.85
2023-02-12T17:45:33.216Z,8.85
2023-02-12T17:50:33.099Z,8.85
2023-02-12T17:55:33.039Z,8.81
2023-02-12T18:00:32.964Z,8.82
2023-02-12T18:05:32.906Z,8.92
2023-02-12T18:10:32.831Z,8.94
2023-02-12T18:15:32.773Z,8.89
2023-02-12T18:20:32.706Z,8.85
2023-02-12T18:25:32.644Z,8.82
2023-02-12T18:30:32.731Z,8.79
2023-02-12T18:35:32.512Z,8.74
2023-02-12T18:40:32.436Z,8.81
2023-02-12T18:45:32.384Z,8.74
2023-02-12T18:50:32.318Z,8.70
2023-02-12T18:55:32.244Z,8.63
2023-02-12T19:00:32.174Z,8.61
2023-02-12T19:05:32.108Z,8.56
2023-02-12T19:10:32.036Z,8.53
2023-02-12T19:15:32.029Z,8.52
2023-02-12T19:20:31.910Z,8.46
2023-02-12T19:25:31.841Z,8.45
2023-02-12T19:30:31.776Z,8.41
2023-02-12T19:35:31.708Z,8.42
2023-02-12T19:40:31.639Z,8.42
2023-02-12T19:45:31.581Z,8.44
2023-02-12T19:50:33.224Z,8.46
2023-02-12T19:55:31.454Z,8.48
2023-02-12T20:00:31.378Z,8.45
2023-02-12T20:05:31.316Z,8.45
2023-02-12T20:10:31.242Z,8.44
2023-02-12T20:15:31.206Z,8.41
2023-02-12T20:20:31.110Z,8.37
2023-02-12T20:25:31.058Z,8.37
2023-02-12T20:30:30.979Z,8.32
2023-02-12T20:35:30.927Z,8.30
2023-02-12T20:40:30.845Z,8.29
2023-02-12T20:45:30.787Z,8.26
2023-02-12T20:50:30.713Z,8.23
2023-02-12T20:55:30.653Z,8.22
2023-02-12T21:00:30.581Z,8.23
2023-02-12T21:05:30.521Z,8.25
2023-02-12T21:10:30.441Z,8.23
2023-02-12T21:15:30.384Z,8.23
2023-02-12T21:20:30.315Z,8.17
2023-02-12T21:25:30.249Z,8.09
2023-02-12T21:30:30.176Z,8.07
2023-02-12T21:35:30.113Z,8.00
2023-02-12T21:40:30.039Z,7.99
2023-02-12T21:45:30.062Z,7.94
2023-02-12T21:50:29.909Z,7.93
2023-02-12T21:55:29.844Z,7.92
2023-02-12T22:00:29.795Z,7.89
2023-02-12T22:05:29.710Z,7.89
2023-02-12T22:10:29.637Z,7.89
2023-02-12T22:15:29.578Z,7.89
2023-02-12T22:20:29.514Z,7.90
2023-02-12T22:25:29.446Z,7.90
2023-02-12T22:30:29.365Z,7.90
2023-02-12T22:35:29.304Z,7.89
2023-02-12T22:40:29.232Z,7.86
2023-02-12T22:45:29.209Z,7.84
2023-02-12T22:50:29.100Z,7.86
2023-02-12T22:55:29.033Z,7.87
2023-02-12T23:00:28.960Z,7.84
2023-02-12T23:05:28.901Z,7.79
2023-02-12T23:10:28.826Z,7.75
2023-02-12T23:15:28.765Z,7.69
2023-02-12T23:20:28.728Z,7.68
2023-02-12T23:25:28.644Z,7.65
2023-02-12T23:30:28.603Z,7.66
2023-02-12T23:35:28.526Z,7.65
2023-02-12T23:40:28.465Z,7.63
2023-02-12T23:45:28.405Z,7.60
2023-02-12T23:50:28.329Z,7.61
2023-02-12T23:55:28.265Z,7.58
